createdAt,value
2018-07-17T00:01:11.774Z,40.70
2018-07-17T00:03:46.457Z,40.60
2018-07-17T00:06:40.799Z,40.10
2018-07-17T00:09:15.503Z,40.76
2018-07-17T00:11:50.100Z,41.24
2018-07-17T00:14:24.025Z,39.97
2018-07-17T00:16:58.299Z,40.45
2018-07-17T00:19:36.047Z,40.61
2018-07-17T00:22:30.327Z,40.48
2018-07-17T00:25:03.225Z,40.45
2018-07-17T00:28:10.884Z,40.42
2018-07-17T00:30:45.369Z,39.71
2018-07-17T00:33:39.558Z,40.42
2018-07-17T00:36:14.070Z,40.45
2018-07-17T00:38:47.326Z,40.46
2018-07-17T00:41:21.527Z,39.92
2018-07-17T00:44:00.519Z,39.81
2018-07-17T00:46:56.328Z,40.16
2018-07-17T01:02:43.058Z,40.71
2018-07-17T01:05:21.982Z,41.13
2018-07-17T01:08:03.826Z,40.81
2018-07-17T01:10:44.491Z,40.88
2018-07-17T01:13:44.865Z,41.08
2018-07-17T01:16:23.318Z,40.86
2018-07-17T01:18:58.618Z,39.72
2018-07-17T01:21:32.836Z,41.25
2018-07-17T01:24:27.073Z,41.08
2018-07-17T01:27:05.777Z,40.43
2018-07-17T01:29:51.538Z,40.28
2018-07-17T01:32:25.293Z,39.85
2018-07-17T01:35:00.217Z,40.48
2018-07-17T01:37:33.874Z,39.75
2018-07-17T01:40:08.277Z,40.14
2018-07-17T01:43:02.558Z,39.76
2018-07-17T01:45:35.551Z,40.11
2018-07-17T01:48:11.569Z,40.60
2018-07-17T01:51:05.737Z,40.35
2018-07-17T01:54:30.812Z,39.79
2018-07-17T02:07:17.248Z,40.35
2018-07-17T02:09:52.572Z,40.37
2018-07-17T02:12:47.330Z,40.50
2018-07-17T02:15:22.117Z,40.58
2018-07-17T02:17:57.007Z,40.14
2018-07-17T02:20:51.884Z,40.39
2018-07-17T02:23:26.071Z,40.85
2018-07-17T02:35:59.877Z,39.64
2018-07-17T02:48:27.930Z,40.37
2018-07-17T02:51:04.102Z,40.91
2018-07-17T02:53:37.831Z,39.95
2018-07-17T02:56:33.651Z,40.16
2018-07-17T02:59:28.620Z,40.52
2018-07-17T03:02:22.384Z,40.76
2018-07-17T03:05:16.830Z,39.76
2018-07-17T03:07:50.929Z,40.23
2018-07-17T03:20:19.882Z,39.63
2018-07-17T03:23:25.837Z,39.84
2018-07-17T03:26:00.572Z,40.31
2018-07-17T03:28:56.062Z,40.41
2018-07-17T03:31:32.069Z,40.48
2018-07-17T03:34:07.377Z,40.98
2018-07-17T03:36:41.971Z,39.93
2018-07-17T03:39:15.945Z,40.11
2018-07-17T03:41:50.234Z,39.68
2018-07-17T04:01:07.998Z,40.26
2018-07-17T04:04:03.777Z,39.74
2018-07-17T04:06:42.655Z,40.77
2018-07-17T04:09:37.611Z,41.37
2018-07-17T04:25:41.798Z,40.08
2018-07-17T04:28:14.955Z,40.57
2018-07-17T04:30:49.540Z,40.58
2018-07-17T04:33:44.370Z,40.55
2018-07-17T04:36:17.862Z,41.03
2018-07-17T04:38:55.130Z,40.81
2018-07-17T04:41:27.763Z,40.80
2018-07-17T07:47:33.124Z,44.05
2018-07-17T07:50:32.282Z,43.67
2018-07-17T07:53:06.447Z,43.72
2018-07-17T07:55:39.937Z,44.90
2018-07-17T07:58:13.464Z,45.76
2018-07-17T08:00:47.224Z,45.41
2018-07-17T08:03:20.830Z,46.80
2018-07-17T08:05:56.168Z,46.95
2018-07-17T08:08:32.826Z,46.53
2018-07-17T08:11:06.894Z,46.82
2018-07-17T08:13:43.550Z,48.29
2018-07-17T08:32:38.756Z,47.65
2018-07-17T08:35:34.007Z,49.16
2018-07-17T08:38:08.615Z,49.31
2018-07-17T08:40:42.816Z,49.83
2018-07-17T08:43:14.421Z,50.58
2018-07-17T08:45:49.396Z,49.59
2018-07-17T08:48:22.340Z,50.85
2018-07-17T08:50:56.490Z,50.69
2018-07-17T08:53:28.859Z,50.34
2018-07-17T08:56:02.236Z,50.95
2018-07-17T08:58:35.216Z,50.72
2018-07-17T09:01:09.105Z,50.20
2018-07-17T09:07:41.915Z,49.96
2018-07-17T09:10:16.310Z,50.64
2018-07-17T09:12:50.874Z,50.77
2018-07-17T09:15:26.332Z,51.65
2018-07-17T09:22:02.229Z,50.18
2018-07-17T09:24:36.915Z,50.02
